Washington, District of Columbia
Traffic Map
Current Weather Conditions
Washington, District of Columbia
Scattered Clouds
Scattered Clouds
Feels Like: 63°
Wind Chill: 63° Ceiling: Unl
Heat Index: 63° Visibility: 10mi
Dew Point: 61° Wind: 6mph
Humidity: 93% Direction: 180° (S)
Pressure: 30.06in Gusts: 0mph
Raw Report DataKDCA 090552Z 18005KT 10SM FEW045 SCT250 17/16 A3006 RMK AO2 SLP177 T01720161 10194 20172 58010
Traffic Incident Summary
Active as of:
InformationThere was an issue retrieving the traffic information for this location. Please try a different location or try again shortly.
Track Severe Weather on mobile